KBTA

Details ICAO KBTA
Name Blair Municipal
Region United States
Timezone America/Chicago (UTC-5.0)
Plans Departing 2
Arriving 3
Stats Elevation 1,325 ft / 404 m (AMSL)
Location 41.418751° -96.111740°
Runways 1
Magnetic Variation 2.632° E
Sunrise 2018-05-21 11:01:36 UTC / 2018-05-21 06:01:36 Local
Sunset 2018-05-22 01:43:22 UTC / 2018-05-21 20:43:22 Local
Advertisement - Login to hide

Runways

ID Width Length Bearing (true) Bearing (mag) Surface Threshold Offset Overrun Length
13 98 ft / 30 m 4,205 ft / 1,282 m 137.30° 134.67° Concrete 354 ft / 108 m 0 ft / 0 m
31 98 ft / 30 m 4,205 ft / 1,282 m 317.30° 314.67° Concrete 0 ft / 0 m 0 ft / 0 m

Map

Weather


0- 5 10 15 20 25 30 35+ Temperature / ° C

Clouds and Precipitation
Forecast for 2018-05-22 00:00 UTC. Updated 6 hours ago

Ground ~20,000 ft ~40,000 ft Winds

METAR

KBTA 220455Z AUTO 11003KT 10SM CLR 17/15 A2999 RMK AO2 T01730145

TAF

Not found

Frequencies

Recorded 120.22 MHz AWOS 3
Unicom 122.90 MHz CTAF
Warning: Do not use this data for real-world aviation or navigation. No guarantee of current accuracy is given.